Time;durP1;ratioP1;P1;durP2;ratioP2;P2;SDS_P1;SDS_P2;PMS_P1;PMS_P2;Temp;Humidity;BMP_temperature;BMP_pressure;BME280_temperature;BME280_humidity;BME280_pressure;Samples;Min_cycle;Max_cycle;Signal;HPM_P1;HPM_P2
2023/12/09 00:01:19;;;;;;;26.45;5.15;;;9.20;99.90;;;;;;5133645;27;20023;-78
2023/12/09 00:03:45;;;;;;;24.88;4.82;;;9.20;99.90;;;;;;5133663;27;20023;-78
2023/12/09 00:06:11;;;;;;;20.75;4.30;;;9.20;99.90;;;;;;5133591;27;20050;-78
2023/12/09 00:08:37;;;;;;;26.20;4.90;;;9.20;99.90;;;;;;5133858;27;20034;-78
2023/12/09 00:11:02;;;;;;;21.55;3.55;;;9.20;99.90;;;;;;5133938;27;20464;-79
2023/12/09 00:13:28;;;;;;;18.73;4.05;;;9.20;99.90;;;;;;5134192;27;20027;-78
2023/12/09 00:15:54;;;;;;;19.05;3.67;;;9.20;99.90;;;;;;5134171;27;20030;-79
2023/12/09 00:18:20;;;;;;;15.70;4.18;;;9.30;99.90;;;;;;5133537;27;20475;-78
2023/12/09 00:20:46;;;;;;;21.90;4.60;;;9.30;99.90;;;;;;5133687;27;20102;-77
2023/12/09 00:23:11;;;;;;;18.63;4.63;;;9.30;99.90;;;;;;5133167;27;20482;-79
2023/12/09 00:25:37;;;;;;;17.67;3.65;;;9.30;99.90;;;;;;5133790;27;20032;-79
2023/12/09 00:28:03;;;;;;;21.92;3.85;;;9.40;99.90;;;;;;5133375;27;20051;-79
2023/12/09 00:30:29;;;;;;;22.60;4.35;;;9.40;99.90;;;;;;5133681;27;20100;-79
2023/12/09 00:32:55;;;;;;;19.60;3.53;;;9.40;99.90;;;;;;5133449;27;20098;-79
2023/12/09 00:35:21;;;;;;;21.98;3.92;;;9.40;99.90;;;;;;5132883;27;20105;-78
2023/12/09 00:37:47;;;;;;;20.45;3.78;;;9.40;99.90;;;;;;5114929;27;20127;-78
2023/12/09 00:40:12;;;;;;;26.95;5.15;;;9.40;99.90;;;;;;5133188;27;20110;-78
2023/12/09 00:42:38;;;;;;;16.45;3.80;;;9.40;99.90;;;;;;5133556;27;20316;-78
2023/12/09 00:45:05;;;;;;;27.90;4.50;;;9.40;99.90;;;;;;5133129;27;20440;-79
2023/12/09 00:47:31;;;;;;;18.67;3.30;;;9.50;99.90;;;;;;5133750;27;20023;-79
2023/12/09 00:49:56;;;;;;;17.98;3.55;;;9.50;99.90;;;;;;5132968;27;20106;-79
2023/12/09 00:52:22;;;;;;;19.90;4.18;;;9.50;99.90;;;;;;5132678;27;20088;-78
2023/12/09 00:54:48;;;;;;;17.80;3.47;;;9.50;99.90;;;;;;5114568;27;20092;-78
2023/12/09 00:57:14;;;;;;;20.70;3.22;;;9.60;99.90;;;;;;5132670;27;20177;-78
2023/12/09 00:59:40;;;;;;;17.98;3.75;;;9.60;99.90;;;;;;5133171;27;20370;-77
2023/12/09 01:02:05;;;;;;;14.43;3.40;;;9.60;99.90;;;;;;5114289;27;20031;-79
2023/12/09 01:04:31;;;;;;;17.75;3.30;;;9.60;99.90;;;;;;5132485;27;20027;-78
2023/12/09 01:06:57;;;;;;;13.82;3.13;;;9.60;99.90;;;;;;5132957;27;20023;-78
2023/12/09 01:09:23;;;;;;;17.65;3.17;;;9.60;99.90;;;;;;5132151;27;20155;-78
2023/12/09 01:11:49;;;;;;;9.05;2.67;;;9.60;99.90;;;;;;5133172;27;20045;-78
2023/12/09 01:14:14;;;;;;;13.27;3.17;;;9.60;99.90;;;;;;5132340;27;20402;-78
2023/12/09 01:16:40;;;;;;;11.57;2.67;;;9.50;99.90;;;;;;5113690;27;20062;-78
2023/12/09 01:19:06;;;;;;;15.30;2.63;;;9.60;99.90;;;;;;5132319;27;20114;-79
2023/12/09 01:21:32;;;;;;;10.30;2.47;;;9.60;99.90;;;;;;5132469;27;20094;-78
2023/12/09 01:23:58;;;;;;;9.98;1.88;;;9.70;99.90;;;;;;5132423;27;20547;-78
2023/12/09 01:26:23;;;;;;;10.70;2.20;;;9.70;99.90;;;;;;5132362;27;20102;-78
2023/12/09 01:28:49;;;;;;;5.38;1.67;;;9.70;99.90;;;;;;5132318;27;20426;-79
2023/12/09 01:31:15;;;;;;;4.97;1.48;;;9.80;99.90;;;;;;5131682;27;20087;-79
2023/12/09 01:33:41;;;;;;;7.40;2.15;;;9.80;99.90;;;;;;5132369;27;20031;-78
2023/12/09 01:36:07;;;;;;;8.10;1.38;;;9.80;99.90;;;;;;5132358;27;20094;-79
2023/12/09 01:38:33;;;;;;;6.82;1.10;;;9.80;99.90;;;;;;5132008;27;20126;-79
2023/12/09 01:40:58;;;;;;;5.60;1.10;;;9.90;99.90;;;;;;5132886;27;20540;-79
2023/12/09 01:43:24;;;;;;;4.78;1.20;;;9.90;99.90;;;;;;5113923;27;20030;-79
2023/12/09 01:45:58;;;;;;;3.95;1.00;;;9.80;99.90;;;;;;5133124;27;20110;-79
2023/12/09 01:48:24;;;;;;;3.03;0.95;;;9.90;99.90;;;;;;5132489;27;20449;-79
2023/12/09 01:50:50;;;;;;;2.50;0.90;;;9.90;99.90;;;;;;5132434;27;20031;-79
2023/12/09 01:53:16;;;;;;;5.38;1.08;;;9.90;99.90;;;;;;5131535;27;20399;-78
2023/12/09 01:55:43;;;;;;;3.85;0.90;;;9.90;99.90;;;;;;5131756;27;20031;-79
2023/12/09 01:58:10;;;;;;;3.97;1.05;;;10.00;99.90;;;;;;5132139;27;20107;-80
2023/12/09 02:00:38;;;;;;;1.83;0.60;;;10.00;99.90;;;;;;5132051;27;20024;-79
2023/12/09 02:03:04;;;;;;;1.60;0.75;;;9.90;99.90;;;;;;5132288;27;20175;-79
2023/12/09 02:05:31;;;;;;;2.20;0.80;;;9.90;99.90;;;;;;5131415;27;20617;-79
2023/12/09 02:07:56;;;;;;;3.80;0.90;;;9.90;99.90;;;;;;5132053;27;20039;-79
2023/12/09 02:10:22;;;;;;;2.55;0.90;;;9.90;99.90;;;;;;5131790;27;20072;-80
2023/12/09 02:13:12;;;;;;;3.15;0.75;;;9.90;99.90;;;;;;5132278;27;20421;-79
2023/12/09 02:15:52;;;;;;;0.90;0.52;;;9.90;99.90;;;;;;5131556;27;20333;-79
2023/12/09 02:18:20;;;;;;;1.73;0.60;;;9.90;99.90;;;;;;5131285;27;20452;-79
2023/12/09 02:20:46;;;;;;;1.50;0.50;;;9.90;99.90;;;;;;5114057;27;20393;-79
2023/12/09 02:23:12;;;;;;;1.80;0.73;;;9.90;99.90;;;;;;5132458;27;20113;-80
2023/12/09 02:25:39;;;;;;;2.10;0.73;;;9.90;99.90;;;;;;5131517;27;20118;-79
2023/12/09 02:28:19;;;;;;;1.48;0.63;;;9.90;99.90;;;;;;5131800;27;20136;-79
2023/12/09 02:31:13;;;;;;;1.15;0.60;;;9.80;99.90;;;;;;5132424;27;20029;-79
2023/12/09 02:33:43;;;;;;;3.05;0.90;;;9.80;99.90;;;;;;5132224;28;20110;-79
2023/12/09 02:36:21;;;;;;;3.20;0.70;;;9.80;99.90;;;;;;5132591;28;20375;-78
2023/12/09 02:38:49;;;;;;;3.38;0.90;;;9.70;99.90;;;;;;5131939;28;20051;-78
2023/12/09 02:41:16;;;;;;;5.35;1.55;;;9.70;99.90;;;;;;5131152;28;20031;-79
2023/12/09 02:43:45;;;;;;;3.88;1.02;;;9.70;99.90;;;;;;5131371;28;20020;-79
2023/12/09 02:46:14;;;;;;;2.80;0.80;;;9.70;99.90;;;;;;5131412;28;20055;-79
2023/12/09 02:48:40;;;;;;;6.60;1.20;;;9.60;99.90;;;;;;5131812;28;20028;-79
2023/12/09 02:51:07;;;;;;;4.93;1.50;;;9.70;99.90;;;;;;5113130;28;20118;-80
2023/12/09 02:53:34;;;;;;;4.05;1.27;;;9.60;99.90;;;;;;5130674;28;20026;-80
2023/12/09 02:55:59;;;;;;;2.63;1.08;;;9.50;99.90;;;;;;5130775;27;20464;-78
2023/12/09 02:58:25;;;;;;;5.72;1.17;;;9.50;99.90;;;;;;5131176;28;20133;-79
2023/12/09 03:00:51;;;;;;;5.63;1.60;;;9.50;99.90;;;;;;5131118;28;20027;-76
2023/12/09 03:03:16;;;;;;;4.10;0.90;;;9.50;99.90;;;;;;5130980;28;20041;-79
2023/12/09 03:05:42;;;;;;;5.95;1.10;;;9.50;99.90;;;;;;5131290;28;20429;-78
2023/12/09 03:08:08;;;;;;;3.63;1.20;;;9.40;99.90;;;;;;5131341;28;20030;-78
2023/12/09 03:10:33;;;;;;;4.90;1.75;;;9.50;99.90;;;;;;5130797;28;20601;-79
2023/12/09 03:12:59;;;;;;;2.22;0.93;;;9.40;99.90;;;;;;5112516;28;20019;-79
2023/12/09 03:15:25;;;;;;;3.75;1.10;;;9.40;99.90;;;;;;5131165;28;20360;-79
2023/12/09 03:17:50;;;;;;;4.93;1.10;;;9.50;99.90;;;;;;5113011;28;20059;-79
2023/12/09 03:20:18;;;;;;;3.20;1.27;;;9.40;99.90;;;;;;5130506;28;20130;-82
2023/12/09 03:22:43;;;;;;;2.92;1.20;;;9.40;99.90;;;;;;5131500;28;20019;-79
2023/12/09 03:25:09;;;;;;;3.20;1.25;;;9.40;99.90;;;;;;5131561;28;20425;-80
2023/12/09 03:27:35;;;;;;;3.35;1.10;;;9.30;99.90;;;;;;5131196;28;20015;-83
2023/12/09 03:30:00;;;;;;;3.35;0.90;;;9.30;99.90;;;;;;5131636;28;20438;-81
2023/12/09 03:32:26;;;;;;;3.20;1.35;;;9.30;99.90;;;;;;5130605;28;20468;-80
2023/12/09 03:34:52;;;;;;;2.15;1.60;;;9.30;99.90;;;;;;5132021;28;20034;-79
2023/12/09 03:37:17;;;;;;;4.45;1.55;;;9.20;99.90;;;;;;5130773;28;20436;-79
2023/12/09 03:39:43;;;;;;;3.63;1.00;;;9.30;99.90;;;;;;5134539;27;20023;-84
2023/12/09 03:42:09;;;;;;;3.83;1.00;;;9.30;99.90;;;;;;5137002;27;20067;-83
2023/12/09 03:44:34;;;;;;;2.38;0.80;;;9.40;99.90;;;;;;5134839;27;20031;-81
2023/12/09 03:47:05;;;;;;;3.03;0.93;;;9.20;99.90;;;;;;5116792;27;20023;-82
2023/12/09 03:49:34;;;;;;;1.77;0.80;;;9.30;99.90;;;;;;5116625;27;20019;-82
2023/12/09 03:51:59;;;;;;;3.05;0.70;;;9.30;99.90;;;;;;5135051;27;20130;-84
2023/12/09 03:54:28;;;;;;;2.22;0.85;;;9.30;99.90;;;;;;5134789;27;20130;-87
2023/12/09 03:56:53;;;;;;;2.05;0.77;;;9.30;99.90;;;;;;5134986;27;20058;-83
2023/12/09 03:59:19;;;;;;;3.05;0.80;;;9.30;99.90;;;;;;5134690;27;20023;-83
2023/12/09 04:01:50;;;;;;;3.30;0.90;;;9.30;99.90;;;;;;5134852;27;20487;-84
2023/12/09 04:04:25;;;;;;;1.80;0.73;;;9.30;99.90;;;;;;5135587;27;20468;-87
2023/12/09 04:06:51;;;;;;;8.25;1.70;;;9.40;99.90;;;;;;5117355;27;20032;-86
2023/12/09 04:09:18;;;;;;;2.65;0.85;;;9.40;99.90;;;;;;5116859;27;20066;-89
2023/12/09 04:11:44;;;;;;;2.80;1.00;;;9.30;99.90;;;;;;5135554;27;20091;-85
2023/12/09 04:14:12;;;;;;;1.05;0.70;;;9.50;99.90;;;;;;5117759;27;20056;-87
2023/12/09 04:16:45;;;;;;;1.70;1.00;;;9.50;99.90;;;;;;5117571;27;20019;-85
2023/12/09 04:19:11;;;;;;;2.08;0.80;;;9.40;99.90;;;;;;5117842;27;20513;-83
2023/12/09 04:21:37;;;;;;;2.22;0.40;;;9.50;99.90;;;;;;5135369;27;20023;-83
2023/12/09 04:24:03;;;;;;;0.77;0.50;;;9.40;99.90;;;;;;5135728;27;20027;-84
2023/12/09 04:26:29;;;;;;;1.75;0.50;;;9.60;99.90;;;;;;5135826;27;20035;-85
2023/12/09 04:28:54;;;;;;;3.90;0.60;;;9.60;99.90;;;;;;5136184;27;20459;-87
2023/12/09 04:31:22;;;;;;;2.03;0.77;;;9.60;99.90;;;;;;5135924;27;20027;-88
2023/12/09 04:33:51;;;;;;;1.45;0.20;;;9.70;99.90;;;;;;5117097;27;20023;-86
2023/12/09 04:36:16;;;;;;;1.52;0.38;;;9.90;99.90;;;;;;5135344;27;20077;-85
2023/12/09 04:38:43;;;;;;;2.10;0.30;;;9.90;99.90;;;;;;5134638;27;20094;-84
2023/12/09 04:41:08;;;;;;;0.88;0.40;;;9.90;99.90;;;;;;5117857;27;20471;-85
2023/12/09 04:43:34;;;;;;;2.20;0.60;;;9.90;99.90;;;;;;5117628;27;20034;-84
2023/12/09 04:46:02;;;;;;;3.33;0.55;;;9.90;99.90;;;;;;5138066;27;20117;-87
2023/12/09 04:48:28;;;;;;;0.50;0.35;;;10.00;99.90;;;;;;5138350;27;20023;-86
2023/12/09 04:50:57;;;;;;;0.98;0.55;;;10.20;99.90;;;;;;5118115;27;20058;-85
2023/12/09 04:53:23;;;;;;;0.98;0.45;;;10.10;99.90;;;;;;5135218;27;20023;-85
2023/12/09 04:55:51;;;;;;;0.73;0.38;;;10.10;99.90;;;;;;5135877;27;20374;-86
2023/12/09 04:58:17;;;;;;;1.42;0.40;;;10.00;99.90;;;;;;5134926;27;20051;-86
2023/12/09 05:00:42;;;;;;;1.25;0.70;;;10.00;99.90;;;;;;5134298;27;20049;-81
2023/12/09 05:03:08;;;;;;;3.45;0.75;;;10.20;99.90;;;;;;5133801;27;20470;-81
2023/12/09 05:05:34;;;;;;;1.95;0.45;;;10.10;99.90;;;;;;5132680;27;20027;-80
2023/12/09 05:07:59;;;;;;;6.63;0.90;;;10.10;99.90;;;;;;5133193;27;20042;-80
2023/12/09 05:10:25;;;;;;;1.88;0.60;;;10.40;99.90;;;;;;5132683;27;20421;-82
2023/12/09 05:12:51;;;;;;;3.72;0.80;;;10.20;99.90;;;;;;5115310;27;20108;-82
2023/12/09 05:15:17;;;;;;;3.55;0.80;;;10.30;99.90;;;;;;5115708;27;20477;-83
2023/12/09 05:17:42;;;;;;;2.53;0.68;;;10.20;99.90;;;;;;5133299;27;20023;-81
2023/12/09 05:20:09;;;;;;;3.05;0.80;;;10.30;99.90;;;;;;5114917;27;20023;-79
2023/12/09 05:22:35;;;;;;;2.92;0.52;;;10.20;99.90;;;;;;5132959;27;20015;-79
2023/12/09 05:25:02;;;;;;;2.38;0.52;;;10.30;99.90;;;;;;5132818;27;20080;-80
2023/12/09 05:27:28;;;;;;;6.10;0.88;;;10.30;99.90;;;;;;5132024;27;20470;-79
2023/12/09 05:29:53;;;;;;;4.82;1.27;;;10.40;99.90;;;;;;5132582;27;20028;-79
2023/12/09 05:32:19;;;;;;;4.65;0.70;;;10.40;99.90;;;;;;5132703;27;20031;-78
2023/12/09 05:34:44;;;;;;;1.17;0.40;;;10.20;99.90;;;;;;5113778;27;20130;-79
2023/12/09 05:37:10;;;;;;;5.20;0.77;;;10.30;99.90;;;;;;5133153;27;20035;-79
2023/12/09 05:39:36;;;;;;;4.85;0.70;;;10.30;99.90;;;;;;5132112;27;20055;-80
2023/12/09 05:42:02;;;;;;;3.10;0.70;;;10.30;99.90;;;;;;5132794;27;20450;-79
2023/12/09 05:44:27;;;;;;;6.20;0.80;;;10.40;99.90;;;;;;5131426;27;20061;-80
2023/12/09 05:46:53;;;;;;;2.70;0.63;;;10.30;99.90;;;;;;5132894;27;20035;-80
2023/12/09 05:49:19;;;;;;;4.00;0.70;;;10.40;99.90;;;;;;5132116;27;20075;-79
2023/12/09 05:51:45;;;;;;;2.13;0.80;;;10.30;99.90;;;;;;5132094;27;20027;-79
2023/12/09 05:54:11;;;;;;;3.47;0.68;;;10.30;99.90;;;;;;5132089;27;20038;-79
2023/12/09 05:56:36;;;;;;;4.35;0.98;;;10.40;99.90;;;;;;5131136;27;20111;-79
2023/12/09 05:59:02;;;;;;;4.15;0.98;;;10.40;99.90;;;;;;5132557;27;20112;-79
2023/12/09 06:01:28;;;;;;;4.05;1.50;;;10.30;99.90;;;;;;5131802;27;20451;-79
2023/12/09 06:03:54;;;;;;;4.00;1.60;;;10.40;99.90;;;;;;5132063;27;20183;-79
2023/12/09 06:06:19;;;;;;;3.92;1.60;;;10.40;99.90;;;;;;5132437;27;20469;-79
2023/12/09 06:08:45;;;;;;;2.80;1.15;;;10.20;99.90;;;;;;5131867;27;20038;-80
2023/12/09 06:11:11;;;;;;;2.35;0.90;;;10.40;99.90;;;;;;5132073;27;20033;-79
2023/12/09 06:13:37;;;;;;;2.75;1.05;;;10.30;99.90;;;;;;5131344;27;20447;-79
2023/12/09 06:16:03;;;;;;;2.92;1.10;;;10.40;99.90;;;;;;5132251;27;20363;-79
2023/12/09 06:18:28;;;;;;;2.65;0.60;;;10.40;99.90;;;;;;5131625;27;20047;-79
2023/12/09 06:20:54;;;;;;;0.47;0.40;;;10.50;99.90;;;;;;5132300;27;20039;-79
2023/12/09 06:23:20;;;;;;;0.50;0.30;;;10.50;99.90;;;;;;5132063;27;20027;-79
2023/12/09 06:25:45;;;;;;;1.27;0.40;;;10.80;99.90;;;;;;5131588;27;20294;-79
2023/12/09 06:28:11;;;;;;;0.40;0.40;;;11.00;99.90;;;;;;5131954;27;20413;-79
2023/12/09 06:30:37;;;;;;;0.20;0.20;;;11.10;99.90;;;;;;5131416;27;20023;-80
2023/12/09 06:33:03;;;;;;;0.40;0.40;;;11.20;99.90;;;;;;5131957;27;20027;-79
2023/12/09 06:35:28;;;;;;;0.70;0.38;;;11.30;99.90;;;;;;5131399;27;20094;-80
2023/12/09 06:37:54;;;;;;;1.40;0.47;;;11.40;99.90;;;;;;5113630;28;20031;-80
2023/12/09 06:40:21;;;;;;;0.93;0.40;;;11.50;99.90;;;;;;5132147;27;20348;-80
2023/12/09 06:42:47;;;;;;;0.77;0.50;;;11.50;99.90;;;;;;5131880;28;20147;-80
2023/12/09 06:45:13;;;;;;;0.60;0.60;;;11.60;99.90;;;;;;5131967;28;20520;-80
2023/12/09 06:47:38;;;;;;;1.77;0.52;;;11.40;99.90;;;;;;5131375;28;20035;-81
2023/12/09 06:50:06;;;;;;;0.40;0.40;;;11.70;99.90;;;;;;5131304;28;20064;-81
2023/12/09 06:52:32;;;;;;;3.92;0.60;;;11.60;99.90;;;;;;5131265;28;20110;-81
2023/12/09 06:54:57;;;;;;;1.00;0.40;;;11.70;99.90;;;;;;5131671;28;20586;-80
2023/12/09 06:57:23;;;;;;;1.95;0.60;;;11.60;99.90;;;;;;5131242;28;20465;-80
2023/12/09 06:59:49;;;;;;;2.00;0.50;;;11.70;99.90;;;;;;5130806;28;20027;-80
2023/12/09 07:02:14;;;;;;;1.27;0.40;;;11.90;99.90;;;;;;5131824;28;20261;-80
2023/12/09 07:04:40;;;;;;;2.65;0.40;;;11.80;99.90;;;;;;5130889;28;20019;-79
2023/12/09 07:07:06;;;;;;;2.60;0.50;;;11.70;99.90;;;;;;5131614;28;20031;-78
2023/12/09 07:09:31;;;;;;;0.35;0.30;;;11.70;99.90;;;;;;5130847;28;20024;-80
2023/12/09 07:11:57;;;;;;;0.60;0.50;;;11.90;99.90;;;;;;5131227;28;20019;-78
2023/12/09 07:14:23;;;;;;;3.28;0.60;;;11.70;99.90;;;;;;5134110;27;20480;-78
2023/12/09 07:16:49;;;;;;;1.35;0.50;;;11.60;99.90;;;;;;5135083;27;20023;-78
2023/12/09 07:19:14;;;;;;;3.75;0.80;;;11.50;99.90;;;;;;5135714;27;20065;-79
2023/12/09 07:21:40;;;;;;;2.13;0.90;;;11.70;99.90;;;;;;5134949;27;20325;-78
2023/12/09 07:24:06;;;;;;;3.42;0.85;;;11.70;99.90;;;;;;5135986;27;20027;-78
2023/12/09 07:26:32;;;;;;;3.90;0.73;;;11.70;99.90;;;;;;5135202;27;20038;-80
2023/12/09 07:28:57;;;;;;;4.13;0.70;;;11.70;99.90;;;;;;5135182;27;20035;-79
2023/12/09 07:31:23;;;;;;;1.83;0.60;;;11.50;99.90;;;;;;5135215;27;20035;-79
2023/12/09 07:33:49;;;;;;;4.78;0.73;;;11.60;99.90;;;;;;5134890;27;20080;-79
2023/12/09 07:36:14;;;;;;;4.13;0.50;;;11.50;99.90;;;;;;5135357;27;20027;-79
2023/12/09 07:38:40;;;;;;;3.00;0.70;;;11.60;99.90;;;;;;5135300;27;20099;-80
2023/12/09 07:41:06;;;;;;;2.67;0.52;;;11.60;99.90;;;;;;5135288;27;20020;-79
2023/12/09 07:43:32;;;;;;;3.83;0.88;;;11.80;99.90;;;;;;5135648;27;20023;-78
2023/12/09 07:45:57;;;;;;;2.90;0.50;;;11.80;99.90;;;;;;5134995;27;20124;-78
2023/12/09 07:48:23;;;;;;;1.42;0.60;;;11.80;99.90;;;;;;5135526;27;20099;-77
2023/12/09 07:50:49;;;;;;;2.85;0.40;;;11.70;99.90;;;;;;5116155;27;20059;-78
2023/12/09 07:53:15;;;;;;;2.83;0.60;;;11.80;99.90;;;;;;5135171;27;20034;-79
2023/12/09 07:55:40;;;;;;;4.78;0.88;;;11.70;99.90;;;;;;5133940;27;20031;-79
2023/12/09 07:58:06;;;;;;;8.95;1.23;;;11.70;99.90;;;;;;5133349;27;20134;-78
2023/12/09 08:00:32;;;;;;;7.43;1.40;;;11.70;99.90;;;;;;5134167;27;20625;-79
2023/12/09 08:03:04;;;;;;;5.45;1.08;;;11.50;99.90;;;;;;5134878;27;20059;-79
2023/12/09 08:05:30;;;;;;;3.78;0.82;;;11.40;99.90;;;;;;5134591;27;20039;-79
2023/12/09 08:07:56;;;;;;;6.18;1.02;;;11.40;99.90;;;;;;5134130;27;20066;-79
2023/12/09 08:10:21;;;;;;;3.83;0.70;;;11.40;99.90;;;;;;5134620;27;20107;-79
2023/12/09 08:12:47;;;;;;;4.18;0.80;;;11.40;99.90;;;;;;5133948;27;20091;-79
2023/12/09 08:15:13;;;;;;;4.38;0.90;;;11.40;99.90;;;;;;5134746;27;20476;-79
2023/12/09 08:17:39;;;;;;;5.47;1.02;;;11.40;99.90;;;;;;5133881;27;20027;-79
2023/12/09 08:20:08;;;;;;;4.65;0.80;;;11.40;99.90;;;;;;5134340;27;20035;-78
2023/12/09 08:22:36;;;;;;;5.00;1.30;;;11.40;99.90;;;;;;5133677;27;20061;-79
2023/12/09 08:25:01;;;;;;;3.78;0.98;;;11.40;99.90;;;;;;5133807;27;20031;-80
2023/12/09 08:27:27;;;;;;;2.75;0.85;;;11.30;99.90;;;;;;5115457;27;20034;-79
2023/12/09 08:29:53;;;;;;;5.00;0.65;;;11.30;99.90;;;;;;5133601;27;20080;-78
2023/12/09 08:32:18;;;;;;;3.60;0.85;;;11.20;99.90;;;;;;5133780;27;20468;-78
2023/12/09 08:34:44;;;;;;;7.53;1.35;;;11.10;99.90;;;;;;5132958;27;20031;-79
2023/12/09 08:37:10;;;;;;;5.22;0.90;;;11.10;99.90;;;;;;5133818;27;20055;-78
2023/12/09 08:39:38;;;;;;;11.55;1.35;;;11.10;99.90;;;;;;5133600;27;20106;-79
2023/12/09 08:42:04;;;;;;;7.47;1.90;;;11.00;99.90;;;;;;5133594;27;20336;-78
2023/12/09 08:44:30;;;;;;;8.93;1.30;;;10.90;99.90;;;;;;5133362;27;20024;-77
2023/12/09 08:46:55;;;;;;;6.80;1.50;;;10.90;99.90;;;;;;5132839;27;20260;-79
2023/12/09 08:49:21;;;;;;;8.93;1.40;;;10.90;99.90;;;;;;5133249;27;20039;-78
2023/12/09 08:51:48;;;;;;;6.05;1.40;;;10.90;99.90;;;;;;5132580;27;20539;-79
2023/12/09 08:54:14;;;;;;;7.68;1.67;;;10.90;99.90;;;;;;5133786;27;20114;-79
2023/12/09 08:56:40;;;;;;;8.77;1.55;;;10.80;99.90;;;;;;5132844;27;20053;-81
2023/12/09 08:59:08;;;;;;;6.13;1.30;;;10.80;99.90;;;;;;5133177;27;20122;-79
2023/12/09 09:01:37;;;;;;;5.75;1.30;;;10.80;99.90;;;;;;5133364;27;20084;-79
2023/12/09 09:04:03;;;;;;;7.72;1.83;;;10.70;99.90;;;;;;5133379;27;20026;-80
2023/12/09 09:06:29;;;;;;;10.07;1.85;;;10.80;99.90;;;;;;5114859;27;20034;-79
2023/12/09 09:08:55;;;;;;;11.10;2.88;;;10.80;99.90;;;;;;5132492;27;20356;-79
2023/12/09 09:11:21;;;;;;;10.45;2.10;;;10.80;99.90;;;;;;5132975;27;20023;-80
2023/12/09 09:13:47;;;;;;;10.68;2.25;;;10.80;99.90;;;;;;5132582;27;20027;-79
2023/12/09 09:16:14;;;;;;;11.23;1.88;;;10.80;99.90;;;;;;5132700;27;20097;-79
2023/12/09 09:18:40;;;;;;;9.30;2.10;;;10.80;99.90;;;;;;5132382;27;20092;-79
2023/12/09 09:21:06;;;;;;;10.43;2.03;;;10.80;99.90;;;;;;5133195;27;20031;-79
2023/12/09 09:23:31;;;;;;;11.18;2.20;;;10.80;99.90;;;;;;5133614;27;20092;-79
2023/12/09 09:25:57;;;;;;;11.00;2.30;;;10.80;99.90;;;;;;5134339;27;20583;-80
2023/12/09 09:28:23;;;;;;;13.43;2.47;;;10.60;99.90;;;;;;5115322;27;20031;-80
2023/12/09 09:30:48;;;;;;;16.23;2.88;;;10.60;99.90;;;;;;5114593;27;20027;-80
2023/12/09 09:33:14;;;;;;;17.27;3.38;;;10.50;99.90;;;;;;5134835;27;20464;-80
2023/12/09 09:35:40;;;;;;;26.50;4.28;;;10.40;99.90;;;;;;5132779;27;20107;-82
2023/12/09 09:38:06;;;;;;;26.00;4.30;;;10.30;99.90;;;;;;5132412;27;20159;-81
2023/12/09 09:40:32;;;;;;;27.65;4.68;;;10.40;99.90;;;;;;5132925;27;20031;-81
2023/12/09 09:43:05;;;;;;;28.67;5.63;;;10.40;99.90;;;;;;5132384;27;20024;-80
2023/12/09 09:45:30;;;;;;;;;;;10.40;99.90;;;;;;5133059;27;20027;-80
2023/12/09 09:47:57;;;;;;;35.47;6.13;;;10.40;99.90;;;;;;5132195;27;20102;-79
2023/12/09 09:50:25;;;;;;;39.80;6.35;;;10.40;99.90;;;;;;5132311;27;20503;-79
2023/12/09 09:52:52;;;;;;;33.20;6.50;;;10.50;99.90;;;;;;5113531;27;20471;-80
2023/12/09 09:55:20;;;;;;;45.83;6.50;;;10.50;99.90;;;;;;5132558;27;20078;-79
2023/12/09 09:57:47;;;;;;;34.20;6.63;;;10.60;99.90;;;;;;5131537;27;20464;-79
2023/12/09 10:00:14;;;;;;;39.88;6.35;;;10.60;99.90;;;;;;5131975;27;20023;-79
2023/12/09 10:02:48;;;;;;;45.15;7.07;;;10.60;99.90;;;;;;5132159;27;20051;-79
2023/12/09 10:05:20;;;;;;;36.72;6.00;;;10.60;99.90;;;;;;5131967;27;20037;-80
2023/12/09 10:07:46;;;;;;;35.17;6.32;;;10.70;99.90;;;;;;5131979;27;20108;-81
2023/12/09 10:10:13;;;;;;;39.78;6.72;;;10.70;99.90;;;;;;5113568;27;20474;-80
2023/12/09 10:12:40;;;;;;;45.63;7.43;;;10.70;99.90;;;;;;5131885;27;20076;-79
2023/12/09 10:15:06;;;;;;;38.38;7.00;;;10.70;99.90;;;;;;5131685;27;20464;-79
2023/12/09 10:17:33;;;;;;;43.95;7.13;;;10.70;99.90;;;;;;5131913;27;20023;-78
2023/12/09 10:19:59;;;;;;;33.95;6.38;;;10.80;99.90;;;;;;5131195;27;20032;-79
2023/12/09 10:22:26;;;;;;;34.97;6.45;;;10.90;99.90;;;;;;5131821;27;20483;-81
2023/12/09 10:24:52;;;;;;;25.63;5.68;;;11.00;99.90;;;;;;5131358;27;20027;-81
2023/12/09 10:27:22;;;;;;;37.72;6.20;;;11.00;99.90;;;;;;5131629;27;20035;-80
2023/12/09 10:29:49;;;;;;;35.88;6.53;;;11.00;99.90;;;;;;5131342;27;20027;-80
2023/12/09 10:32:15;;;;;;;48.60;7.57;;;11.00;99.90;;;;;;5131182;27;20329;-78
2023/12/09 10:34:42;;;;;;;34.58;6.25;;;10.90;99.90;;;;;;5113136;28;20117;-79
2023/12/09 10:37:08;;;;;;;35.83;6.55;;;10.90;99.90;;;;;;5131908;27;20031;-78
2023/12/09 10:39:35;;;;;;;35.95;7.55;;;10.90;99.90;;;;;;5131869;27;20030;-80
2023/12/09 10:42:03;;;;;;;35.78;6.40;;;10.90;99.90;;;;;;5131339;28;20442;-81
2023/12/09 10:44:30;;;;;;;43.33;7.18;;;11.00;99.90;;;;;;5113353;28;20123;-80
2023/12/09 10:46:55;;;;;;;33.17;6.68;;;11.00;99.90;;;;;;5131525;28;20035;-80
2023/12/09 10:49:21;;;;;;;32.97;6.75;;;11.00;99.90;;;;;;5134318;27;20034;-78
2023/12/09 10:51:47;;;;;;;35.90;6.22;;;11.00;99.90;;;;;;5136166;27;20031;-79
2023/12/09 10:54:13;;;;;;;32.10;5.75;;;11.00;99.90;;;;;;5136913;27;20353;-78
2023/12/09 10:56:39;;;;;;;35.75;6.55;;;11.00;99.90;;;;;;5136864;27;20047;-77
2023/12/09 10:59:06;;;;;;;35.83;6.28;;;11.00;99.90;;;;;;5136430;27;20038;-79
2023/12/09 11:01:32;;;;;;;31.20;5.82;;;11.00;99.90;;;;;;5136538;27;20042;-78
2023/12/09 11:03:58;;;;;;;40.28;7.05;;;11.00;99.90;;;;;;5135896;27;20491;-79
2023/12/09 11:06:29;;;;;;;38.83;5.88;;;11.00;99.90;;;;;;5118537;27;20041;-78
2023/12/09 11:08:56;;;;;;;28.88;5.60;;;11.00;99.90;;;;;;5136608;27;20027;-78
2023/12/09 11:11:23;;;;;;;30.95;5.55;;;10.90;99.90;;;;;;5136729;27;20052;-78
2023/12/09 11:13:48;;;;;;;34.28;5.68;;;10.90;99.90;;;;;;5135768;27;20102;-78
2023/12/09 11:16:18;;;;;;;32.55;6.30;;;10.90;99.90;;;;;;5136674;27;20393;-77
2023/12/09 11:18:52;;;;;;;29.40;6.05;;;10.90;99.90;;;;;;5136139;27;20069;-77
2023/12/09 11:21:19;;;;;;;34.00;6.40;;;11.00;99.90;;;;;;5136607;27;20031;-78
2023/12/09 11:23:53;;;;;;;28.45;5.40;;;11.00;99.90;;;;;;5136024;27;20031;-78
2023/12/09 11:26:36;;;;;;;28.55;5.43;;;11.00;99.90;;;;;;5135512;27;20056;-79
2023/12/09 11:29:06;;;;;;;;;;;11.10;99.90;;;;;;5134801;27;20130;-79
2023/12/09 11:31:48;;;;;;;30.38;5.13;;;11.10;99.90;;;;;;5134835;27;20055;-78
2023/12/09 11:34:21;;;;;;;42.67;6.43;;;11.10;99.90;;;;;;5135138;27;20060;-78
2023/12/09 11:36:48;;;;;;;46.72;7.75;;;11.10;99.90;;;;;;5135132;27;20269;-79
2023/12/09 11:39:17;;;;;;;39.00;6.97;;;11.10;99.90;;;;;;5116611;27;20114;-78
2023/12/09 11:41:44;;;;;;;34.60;6.82;;;11.20;99.90;;;;;;5134997;27;20076;-78
2023/12/09 11:44:11;;;;;;;33.40;6.57;;;11.20;99.90;;;;;;5133991;27;20034;-78
2023/12/09 11:46:38;;;;;;;38.20;5.80;;;11.20;99.90;;;;;;5134704;27;20062;-79
2023/12/09 11:49:05;;;;;;;32.90;6.72;;;11.10;99.90;;;;;;5133581;27;20476;-77
2023/12/09 11:51:32;;;;;;;33.78;6.65;;;11.00;99.90;;;;;;5134302;27;20038;-77
2023/12/09 11:53:58;;;;;;;27.73;5.28;;;11.00;99.90;;;;;;5133843;27;20028;-77
2023/12/09 11:56:25;;;;;;;27.45;4.78;;;10.90;99.90;;;;;;5134418;27;20058;-77
2023/12/09 11:58:51;;;;;;;31.55;6.22;;;10.70;99.90;;;;;;5133517;27;20038;-79
2023/12/09 12:01:17;;;;;;;32.90;5.80;;;10.60;99.90;;;;;;5134292;27;20065;-78
2023/12/09 12:03:47;;;;;;;22.10;4.95;;;10.60;99.90;;;;;;5133923;27;20106;-78
2023/12/09 12:06:16;;;;;;;29.02;5.60;;;10.60;99.90;;;;;;5098514;27;20118;-78
2023/12/09 12:08:53;;;;;;;22.67;4.95;;;10.70;99.90;;;;;;5134631;27;20080;-79
2023/12/09 12:11:21;;;;;;;24.40;4.55;;;10.70;99.90;;;;;;5115651;27;20027;-78
2023/12/09 12:13:48;;;;;;;20.90;4.78;;;10.70;99.90;;;;;;5134083;27;20110;-79
2023/12/09 12:16:14;;;;;;;27.65;4.03;;;10.70;99.90;;;;;;5133765;27;20035;-79
2023/12/09 12:18:40;;;;;;;29.92;5.35;;;10.80;99.90;;;;;;5134145;27;20027;-78
2023/12/09 12:21:06;;;;;;;18.35;3.90;;;10.80;99.90;;;;;;5133458;27;20023;-77
2023/12/09 12:23:32;;;;;;;29.00;5.07;;;10.90;99.90;;;;;;5133670;27;20063;-78
2023/12/09 12:25:58;;;;;;;23.77;5.28;;;11.00;99.90;;;;;;5133655;27;20451;-79
2023/12/09 12:28:24;;;;;;;29.42;5.38;;;11.00;99.90;;;;;;5134169;27;20027;-79
2023/12/09 12:30:55;;;;;;;22.48;5.30;;;11.00;99.90;;;;;;5133758;27;20380;-80
2023/12/09 12:33:22;;;;;;;20.90;4.80;;;11.00;99.90;;;;;;5133568;27;20019;-78
2023/12/09 12:35:54;;;;;;;32.75;6.35;;;11.10;99.90;;;;;;5133908;27;20448;-79
2023/12/09 12:38:25;;;;;;;26.05;5.57;;;11.10;99.90;;;;;;5133738;27;20027;-78
2023/12/09 12:40:52;;;;;;;29.50;6.25;;;11.20;99.90;;;;;;5133741;27;20199;-79
2023/12/09 12:43:18;;;;;;;26.23;5.60;;;11.20;99.90;;;;;;5133992;27;20030;-78
2023/12/09 12:45:52;;;;;;;25.45;4.70;;;11.30;99.90;;;;;;5133523;27;20364;-78